Time;durP1;ratioP1;P1;durP2;ratioP2;P2;SDS_P1;SDS_P2;PMS_P1;PMS_P2;Temp;Humidity;BMP_temperature;BMP_pressure;BME280_temperature;BME280_humidity;BME280_pressure;Samples;Min_cycle;Max_cycle;Signal;HPM_P1;HPM_P2
2022/12/15 00:40:50;;;;;;;64.83;32.00;;;;;;;-142.25;100.00;58004.16;5030257;28;20057;-62
2022/12/15 00:43:16;;;;;;;63.80;30.87;;;;;;;-142.25;100.00;58004.16;5048513;28;20046;-62
2022/12/15 00:48:26;;;;;;;65.30;33.33;;;;;;;-142.25;100.00;58004.16;5034380;28;20046;-62
2022/12/15 00:50:51;;;;;;;63.63;32.90;;;;;;;-142.25;100.00;58004.16;5031001;28;20604;-62
2022/12/15 01:20:57;;;;;;;61.90;34.47;;;;;;;-142.25;100.00;58004.16;5034825;28;20045;-63
2022/12/15 01:23:23;;;;;;;65.57;31.83;;;;;;;-142.25;100.00;58004.16;5032576;28;20076;-61
2022/12/15 01:25:52;;;;;;;66.07;33.13;;;;;;;-142.25;100.00;58004.16;5032545;28;20072;-62
2022/12/15 01:28:22;;;;;;;65.37;34.13;;;;;;;-142.25;100.00;58004.16;5032917;28;20480;-62
2022/12/15 01:30:48;;;;;;;64.57;32.73;;;;;;;-142.25;100.00;58004.16;5031928;28;20063;-62
2022/12/15 01:33:15;;;;;;;70.63;32.17;;;;;;;-142.25;100.00;58004.16;5032238;28;20037;-59
2022/12/15 01:35:40;;;;;;;67.53;32.43;;;;;;;-142.25;100.00;58004.16;5034107;28;20037;-63
2022/12/15 01:38:07;;;;;;;67.87;35.23;;;;;;;-142.25;100.00;58004.16;5033908;28;20544;-62
2022/12/15 01:40:45;;;;;;;67.27;33.53;;;;;;;-142.25;100.00;58004.16;5042614;28;20047;-61
2022/12/15 01:43:16;;;;;;;71.13;35.80;;;;;;;-142.25;100.00;58004.16;5032998;28;20045;-62
2022/12/15 01:45:52;;;;;;;69.30;32.77;;;;;;;-142.25;100.00;58004.16;5033269;28;20053;-61
2022/12/15 01:48:32;;;;;;;66.93;34.27;;;;;;;-142.25;100.00;58004.16;5034080;28;20196;-62
2022/12/15 01:51:01;;;;;;;70.57;34.27;;;;;;;-142.25;100.00;58004.16;5035827;28;20049;-61
2022/12/15 01:53:31;;;;;;;67.17;34.40;;;;;;;-142.25;100.00;58004.16;5031608;28;20033;-62
2022/12/15 01:55:56;;;;;;;64.83;32.80;;;;;;;-142.25;100.00;58004.16;5033216;28;20029;-63
2022/12/15 01:58:22;;;;;;;72.63;33.70;;;;;;;-142.25;100.00;58004.16;5029635;28;20356;-62
2022/12/15 02:00:47;;;;;;;65.77;33.50;;;;;;;-142.25;100.00;58004.16;5030866;28;20053;-63
2022/12/15 02:03:13;;;;;;;70.90;33.03;;;;;;;-142.25;100.00;58004.16;5025372;28;20042;-61
2022/12/15 02:05:41;;;;;;;68.20;33.60;;;;;;;-142.25;100.00;58004.16;5025437;28;20046;-61
2022/12/15 02:08:08;;;;;;;65.33;34.60;;;;;;;-142.25;100.00;58004.16;5029769;28;20149;-60
2022/12/15 02:11:01;;;;;;;66.67;33.10;;;;;;;-142.25;100.00;58004.16;5032780;28;20102;-61
2022/12/15 02:13:50;;;;;;;60.43;31.00;;;;;;;-142.25;100.00;58004.16;5031346;28;20047;-61
2022/12/15 02:16:17;;;;;;;62.93;31.80;;;;;;;-142.25;100.00;58004.16;5026206;28;20084;-61
2022/12/15 02:18:59;;;;;;;67.83;35.07;;;;;;;-142.25;100.00;58004.16;5034470;28;20366;-61
2022/12/15 02:21:32;;;;;;;67.27;33.43;;;;;;;-142.25;100.00;58004.16;5034716;28;20480;-63
2022/12/15 02:24:16;;;;;;;61.33;32.47;;;;;;;-142.25;100.00;58004.16;5035644;28;20057;-62
2022/12/15 02:27:00;;;;;;;67.43;33.73;;;;;;;-142.25;100.00;58004.16;5034303;28;20159;-61
2022/12/15 02:29:43;;;;;;;68.27;32.47;;;;;;;-142.25;100.00;58004.16;5033683;28;20066;-61
2022/12/15 02:32:13;;;;;;;68.27;32.37;;;;;;;-142.25;100.00;58004.16;5036111;28;20115;-63
2022/12/15 02:34:51;;;;;;;66.57;33.40;;;;;;;-142.25;100.00;58004.16;5032432;28;20045;-60
2022/12/15 02:37:27;;;;;;;66.97;32.90;;;;;;;-142.25;100.00;58004.16;5034970;28;20045;-63
2022/12/15 02:39:53;;;;;;;62.42;32.35;;;;;;;-142.25;100.00;58004.16;5035657;28;20190;-61
2022/12/15 02:42:21;;;;;;;61.07;31.73;;;;;;;-142.25;100.00;58004.16;5031931;28;20049;-61
2022/12/15 02:45:04;;;;;;;61.80;31.97;;;;;;;-142.25;100.00;58004.16;5033333;28;20520;-61
2022/12/15 02:47:44;;;;;;;66.03;32.90;;;;;;;-142.25;100.00;58004.16;5035169;28;20051;-61
2022/12/15 02:50:25;;;;;;;63.53;32.77;;;;;;;-142.25;100.00;58004.16;5035828;28;20132;-61
2022/12/15 02:53:19;;;;;;;65.73;32.80;;;;;;;-142.25;100.00;58004.16;5032997;28;20116;-61
2022/12/15 02:56:19;;;;;;;60.43;32.03;;;;;;;-142.25;100.00;58004.16;5035291;28;20101;-61
2022/12/15 02:58:54;;;;;;;63.13;32.47;;;;;;;-142.25;100.00;58004.16;5035081;28;20118;-61
2022/12/15 03:01:43;;;;;;;58.17;32.47;;;;;;;-142.25;100.00;58004.16;5035159;28;20175;-62
2022/12/15 03:04:10;;;;;;;62.43;32.97;;;;;;;-142.25;100.00;58004.16;5031464;28;20499;-61
2022/12/15 03:06:37;;;;;;;63.10;32.00;;;;;;;-142.25;100.00;58004.16;5033408;28;20080;-61
2022/12/15 03:09:02;;;;;;;68.53;32.73;;;;;;;-142.25;100.00;58004.16;5034571;28;20130;-61
2022/12/15 03:11:28;;;;;;;67.17;32.23;;;;;;;-142.25;100.00;58004.16;5035018;28;20419;-61
2022/12/15 03:13:56;;;;;;;57.87;31.30;;;;;;;-142.25;100.00;58004.16;5032008;28;20781;-62
2022/12/15 03:16:22;;;;;;;57.37;31.47;;;;;;;-142.25;100.00;58004.16;5034649;28;20052;-60
2022/12/15 03:18:47;;;;;;;67.50;35.50;;;;;;;-142.25;100.00;58004.16;5036647;28;20056;-61
2022/12/15 03:21:13;;;;;;;66.70;34.63;;;;;;;-142.25;100.00;58004.16;5035073;28;20048;-61
2022/12/15 03:23:38;;;;;;;64.73;33.17;;;;;;;-142.25;100.00;58004.16;5035246;28;20056;-61
2022/12/15 03:26:05;;;;;;;65.93;33.17;;;;;;;-142.25;100.00;58004.16;5033893;28;20393;-61
2022/12/15 03:28:32;;;;;;;63.53;32.90;;;;;;;-142.25;100.00;58004.16;5034780;28;20649;-61
2022/12/15 03:30:57;;;;;;;64.70;33.13;;;;;;;-142.25;100.00;58004.16;5033285;28;20095;-60
2022/12/15 03:33:23;;;;;;;61.27;31.13;;;;;;;-142.25;100.00;58004.16;5035126;28;20509;-60
2022/12/15 03:35:50;;;;;;;62.50;31.10;;;;;;;-142.25;100.00;58004.16;5015787;28;20059;-62
2022/12/15 03:38:16;;;;;;;66.27;34.17;;;;;;;-142.25;100.00;58004.16;5033092;28;20045;-63
2022/12/15 03:40:42;;;;;;;64.67;29.87;;;;;;;-142.25;100.00;58004.16;5033204;28;20041;-61
2022/12/15 03:43:08;;;;;;;65.00;33.07;;;;;;;-142.25;100.00;58004.16;5033794;28;20045;-61
2022/12/15 03:45:34;;;;;;;64.10;33.57;;;;;;;-142.25;100.00;58004.16;5032965;28;20049;-60
2022/12/15 03:47:59;;;;;;;62.37;33.33;;;;;;;-142.25;100.00;58004.16;5033754;28;20049;-61
2022/12/15 03:50:27;;;;;;;60.80;32.33;;;;;;;-142.25;100.00;58004.16;5031759;28;20127;-61
2022/12/15 03:53:02;;;;;;;69.43;36.13;;;;;;;-142.25;100.00;58004.16;5032534;28;20076;-62
2022/12/15 03:55:29;;;;;;;62.93;32.20;;;;;;;-142.25;100.00;58004.16;5034387;28;20521;-62
2022/12/15 03:57:56;;;;;;;60.00;33.10;;;;;;;-142.25;100.00;58004.16;5034322;28;20065;-61
2022/12/15 04:00:23;;;;;;;63.40;32.63;;;;;;;-142.25;100.00;58004.16;5033754;28;20086;-61
2022/12/15 04:02:50;;;;;;;65.13;31.97;;;;;;;-142.25;100.00;58004.16;5034694;28;20203;-61
2022/12/15 04:05:25;;;;;;;70.13;33.43;;;;;;;-142.25;100.00;58004.16;5032428;28;20045;-60
2022/12/15 04:07:52;;;;;;;67.47;33.08;;;;;;;-142.25;100.00;58004.16;5033713;28;20044;-61
2022/12/15 04:10:18;;;;;;;62.03;30.60;;;;;;;-142.25;100.00;58004.16;5033507;28;20060;-62
2022/12/15 04:12:43;;;;;;;62.63;32.33;;;;;;;-142.25;100.00;58004.16;5034023;28;20033;-62
2022/12/15 04:15:10;;;;;;;68.90;34.10;;;;;;;-142.25;100.00;58004.16;5032154;28;20077;-62
2022/12/15 04:17:36;;;;;;;64.73;33.10;;;;;;;-142.25;100.00;58004.16;5030514;28;20034;-62
2022/12/15 04:20:09;;;;;;;60.83;32.77;;;;;;;-142.25;100.00;58004.16;5033759;28;20068;-61
2022/12/15 04:22:42;;;;;;;62.50;31.30;;;;;;;-142.25;100.00;58004.16;5032785;28;20045;-62
2022/12/15 05:33:56;;;;;;;76.13;36.63;;;;;;;-142.25;100.00;58004.16;5033551;28;20046;-61
2022/12/15 05:36:22;;;;;;;65.90;34.70;;;;;;;-142.25;100.00;58004.16;5031559;28;20029;-60
2022/12/15 05:38:49;;;;;;;69.43;35.63;;;;;;;-142.25;100.00;58004.16;5033481;28;20549;-60
2022/12/15 05:41:17;;;;;;;70.43;36.20;;;;;;;-142.25;100.00;58004.16;5032052;28;20127;-59
2022/12/15 05:43:43;;;;;;;81.47;39.27;;;;;;;-142.25;100.00;58004.16;5032647;28;20124;-62
2022/12/15 05:46:09;;;;;;;78.40;42.23;;;;;;;-142.25;100.00;58004.16;5034717;28;20048;-61
2022/12/15 05:48:34;;;;;;;74.23;37.07;;;;;;;-142.25;100.00;58004.16;5033013;28;20056;-59
2022/12/15 05:51:05;;;;;;;74.97;37.50;;;;;;;-142.25;100.00;58004.16;5032177;28;20120;-60
2022/12/15 05:53:30;;;;;;;70.47;38.33;;;;;;;-142.25;100.00;58004.16;5032103;28;20693;-60
2022/12/15 05:56:01;;;;;;;78.70;39.70;;;;;;;-142.25;100.00;58004.16;5037497;28;20048;-61
2022/12/15 05:58:27;;;;;;;66.83;34.53;;;;;;;-142.25;100.00;58004.16;5035577;28;20045;-60
2022/12/15 06:00:53;;;;;;;69.03;33.67;;;;;;;-142.25;100.00;58004.16;5036780;28;20072;-65
2022/12/15 06:03:19;;;;;;;59.57;32.40;;;;;;;-142.25;100.00;58004.16;5036858;28;20468;-62
2022/12/15 06:05:44;;;;;;;60.20;30.57;;;;;;;-142.25;100.00;58004.16;5039063;28;20140;-58
2022/12/15 06:08:10;;;;;;;71.23;34.83;;;;;;;-142.25;100.00;58004.16;5039924;28;20055;-60
2022/12/15 06:10:35;;;;;;;60.07;31.57;;;;;;;-142.25;100.00;58004.16;5050689;28;20161;-58
2022/12/15 06:13:01;;;;;;;69.57;35.47;;;;;;;-142.25;100.00;58004.16;5030115;28;20072;-60
2022/12/15 06:15:27;;;;;;;59.17;30.20;;;;;;;-142.25;100.00;58004.16;5027973;28;20065;-60
2022/12/15 06:17:54;;;;;;;57.50;31.73;;;;;;;-142.25;100.00;58004.16;5032291;28;20041;-59
2022/12/15 06:20:20;;;;;;;73.10;35.73;;;;;;;-142.25;100.00;58004.16;5030011;28;20065;-59
2022/12/15 06:22:45;;;;;;;70.23;35.97;;;;;;;-142.25;100.00;58004.16;5032787;28;20037;-60
2022/12/15 06:25:11;;;;;;;67.87;36.70;;;;;;;-142.25;100.00;58004.16;5031211;28;20042;-58
2022/12/15 06:27:36;;;;;;;68.03;36.27;;;;;;;-142.25;100.00;58004.16;5033801;28;20522;-58
2022/12/15 06:30:02;;;;;;;68.40;35.07;;;;;;;-142.25;100.00;58004.16;5029923;28;20119;-58
2022/12/15 06:32:28;;;;;;;78.60;36.00;;;;;;;-142.25;100.00;58004.16;5031748;28;20052;-57
2022/12/15 06:34:54;;;;;;;72.40;35.73;;;;;;;-142.25;100.00;58004.16;5035699;28;20049;-59
2022/12/15 06:37:19;;;;;;;110.83;50.27;;;;;;;-142.25;100.00;58004.16;5033921;28;20052;-59
2022/12/15 06:39:45;;;;;;;82.83;40.67;;;;;;;-142.25;100.00;58004.16;5034167;28;20107;-59
2022/12/15 06:42:10;;;;;;;69.43;34.73;;;;;;;-142.25;100.00;58004.16;5035218;28;20049;-59
2022/12/15 06:44:36;;;;;;;70.60;34.70;;;;;;;-142.25;100.00;58004.16;5033993;28;20063;-59
2022/12/15 06:47:02;;;;;;;69.17;35.23;;;;;;;-142.25;100.00;58004.16;5034144;28;20045;-59
2022/12/15 06:49:28;;;;;;;85.27;40.57;;;;;;;-142.25;100.00;58004.16;5034502;28;20464;-59
2022/12/15 06:51:53;;;;;;;80.80;41.47;;;;;;;-142.25;100.00;58004.16;5034009;28;20057;-59
2022/12/15 06:54:19;;;;;;;89.90;43.07;;;;;;;-142.25;100.00;58004.16;5034538;28;20079;-59
2022/12/15 06:56:44;;;;;;;96.37;45.73;;;;;;;-142.25;100.00;58004.16;5035033;28;20455;-60
2022/12/15 06:59:11;;;;;;;93.80;45.23;;;;;;;-142.25;100.00;58004.16;5033147;28;20473;-59
2022/12/15 07:01:37;;;;;;;79.30;40.77;;;;;;;-142.25;100.00;58004.16;5033503;28;20385;-59
2022/12/15 07:04:04;;;;;;;98.97;46.23;;;;;;;-142.25;100.00;58004.16;5033883;28;20479;-59
2022/12/15 07:06:35;;;;;;;87.40;44.60;;;;;;;-142.25;100.00;58004.16;5031971;28;20049;-60
2022/12/15 07:09:01;;;;;;;79.50;39.83;;;;;;;-142.25;100.00;58004.16;5033612;28;20139;-59
2022/12/15 07:11:26;;;;;;;80.73;40.97;;;;;;;-142.25;100.00;58004.16;5028331;28;20399;-59
2022/12/15 07:13:53;;;;;;;76.33;41.37;;;;;;;-142.25;100.00;58004.16;5026329;28;20206;-59
2022/12/15 07:16:20;;;;;;;70.43;37.03;;;;;;;-142.25;100.00;58004.16;5032451;28;20041;-59
2022/12/15 07:18:46;;;;;;;63.63;34.60;;;;;;;-142.25;100.00;58004.16;5033084;28;20073;-59
2022/12/15 07:21:11;;;;;;;69.50;35.80;;;;;;;-142.25;100.00;58004.16;5033497;28;20041;-60
2022/12/15 07:23:37;;;;;;;69.80;37.07;;;;;;;-142.25;100.00;58004.16;5033511;28;20084;-59
2022/12/15 07:26:07;;;;;;;71.90;35.80;;;;;;;-142.25;100.00;58004.16;5033433;28;20040;-59
2022/12/15 07:28:35;;;;;;;72.70;36.07;;;;;;;-142.25;100.00;58004.16;5035035;28;20124;-60
2022/12/15 07:31:06;;;;;;;65.27;34.63;;;;;;;-142.25;100.00;58004.16;5032293;28;20176;-59
2022/12/15 07:33:32;;;;;;;72.00;37.43;;;;;;;-142.25;100.00;58004.16;5034826;28;20130;-60
2022/12/15 07:35:59;;;;;;;69.67;36.03;;;;;;;-142.25;100.00;58004.16;5031809;28;20033;-59
2022/12/15 07:38:26;;;;;;;65.13;36.73;;;;;;;-142.25;100.00;58004.16;5032820;28;20103;-59
2022/12/15 07:40:52;;;;;;;71.43;38.40;;;;;;;-142.25;100.00;58004.16;5033164;28;20049;-59
2022/12/15 07:43:18;;;;;;;71.83;37.57;;;;;;;-142.25;100.00;58004.16;5034755;28;20042;-58
2022/12/15 07:45:49;;;;;;;67.60;35.73;;;;;;;-142.25;100.00;58004.16;5031307;28;20106;-59
2022/12/15 07:48:15;;;;;;;67.27;36.17;;;;;;;-142.25;100.00;58004.16;4991461;28;1167049;-59
2022/12/15 07:50:40;;;;;;;71.77;39.30;;;;;;;-142.25;100.00;58004.16;5042263;28;20064;-59
2022/12/15 07:53:06;;;;;;;73.93;36.77;;;;;;;-142.25;100.00;58004.16;5021766;28;20132;-59
2022/12/15 07:55:31;;;;;;;71.17;35.33;;;;;;;-142.25;100.00;58004.16;5031759;28;20045;-60
2022/12/15 07:57:57;;;;;;;71.07;35.77;;;;;;;-142.25;100.00;58004.16;5032031;28;20075;-58
2022/12/15 08:00:23;;;;;;;69.13;37.60;;;;;;;-142.25;100.00;58004.16;5031813;28;20041;-59
2022/12/15 08:02:48;;;;;;;67.67;35.40;;;;;;;-142.25;100.00;58004.16;5034572;28;20404;-58
2022/12/15 08:05:14;;;;;;;66.50;34.63;;;;;;;-142.25;100.00;58004.16;5029659;28;20102;-59
2022/12/15 08:07:40;;;;;;;64.70;33.93;;;;;;;-142.25;100.00;58004.16;5031154;28;20061;-59
2022/12/15 08:10:05;;;;;;;63.90;34.87;;;;;;;-142.25;100.00;58004.16;5032484;28;20060;-59
2022/12/15 08:12:31;;;;;;;72.63;37.20;;;;;;;-142.25;100.00;58004.16;5031381;28;20049;-61
2022/12/15 08:14:57;;;;;;;67.27;35.37;;;;;;;-142.25;100.00;58004.16;5032766;28;20373;-61
2022/12/15 08:17:22;;;;;;;70.30;34.53;;;;;;;-142.25;100.00;58004.16;5036338;28;20068;-61
2022/12/15 08:19:48;;;;;;;69.73;33.40;;;;;;;-142.25;100.00;58004.16;5028934;28;20049;-63
2022/12/15 08:22:14;;;;;;;72.43;39.20;;;;;;;-142.25;100.00;58004.16;5036536;28;20611;-61
2022/12/15 08:24:40;;;;;;;67.10;35.40;;;;;;;-142.25;100.00;58004.16;5033043;28;20050;-61
2022/12/15 08:27:07;;;;;;;69.73;34.57;;;;;;;-142.25;100.00;58004.16;5032114;28;20073;-62
2022/12/15 08:29:33;;;;;;;79.13;39.63;;;;;;;-142.25;100.00;58004.16;5032810;28;20124;-61
2022/12/15 08:31:58;;;;;;;68.60;34.90;;;;;;;-142.25;100.00;58004.16;5027277;28;20386;-61
2022/12/15 08:34:24;;;;;;;67.07;35.97;;;;;;;-142.25;100.00;58004.16;5029153;28;20033;-61
2022/12/15 08:36:49;;;;;;;70.77;32.77;;;;;;;-142.25;100.00;58004.16;5033838;28;20069;-64
2022/12/15 08:39:15;;;;;;;65.20;33.53;;;;;;;-142.25;100.00;58004.16;5035896;28;20025;-61
2022/12/15 08:41:41;;;;;;;71.10;33.70;;;;;;;-142.25;100.00;58004.16;5035358;28;20040;-62
2022/12/15 08:44:07;;;;;;;57.43;32.63;;;;;;;-142.25;100.00;58004.16;5031703;28;20999;-61
2022/12/15 08:46:33;;;;;;;63.50;33.47;;;;;;;-142.25;100.00;58004.16;5033294;28;20065;-62
2022/12/15 08:49:00;;;;;;;63.07;33.77;;;;;;;-142.25;100.00;58004.16;5031163;28;20045;-61
2022/12/15 08:51:28;;;;;;;60.93;32.53;;;;;;;-142.25;100.00;58004.16;5031161;28;20386;-61
2022/12/15 08:53:56;;;;;;;59.37;32.77;;;;;;;-142.25;100.00;58004.16;5032483;28;20404;-61
2022/12/15 08:56:23;;;;;;;62.47;32.27;;;;;;;-142.25;100.00;58004.16;5032031;28;20042;-61
2022/12/15 08:58:53;;;;;;;63.07;32.37;;;;;;;-142.25;100.00;58004.16;5030326;28;20605;-62
2022/12/15 09:01:21;;;;;;;58.17;32.47;;;;;;;-142.25;100.00;58004.16;5046587;28;20044;-62
2022/12/15 09:03:52;;;;;;;60.23;32.93;;;;;;;-142.25;100.00;58004.16;5031277;28;20168;-62
2022/12/15 09:06:21;;;;;;;64.13;34.50;;;;;;;-142.25;100.00;58004.16;5033490;28;20080;-63
2022/12/15 09:08:46;;;;;;;59.47;32.80;;;;;;;-142.25;100.00;58004.16;5030466;28;20048;-62
2022/12/15 09:11:12;;;;;;;51.77;29.83;;;;;;;-142.25;100.00;58004.16;5033911;28;20060;-63
2022/12/15 09:13:38;;;;;;;52.73;29.87;;;;;;;-142.25;100.00;58004.16;5032972;28;20172;-61
2022/12/15 09:16:07;;;;;;;56.43;29.63;;;;;;;-142.25;100.00;58004.16;5032189;28;20128;-61
2022/12/15 09:18:33;;;;;;;51.23;26.27;;;;;;;-142.25;100.00;58004.16;5030509;28;20403;-61
2022/12/15 09:21:02;;;;;;;53.93;27.00;;;;;;;-142.25;100.00;58004.16;5032929;28;20512;-61
2022/12/15 09:23:28;;;;;;;50.67;27.63;;;;;;;-142.25;100.00;58004.16;5031980;28;20419;-62
2022/12/15 09:26:01;;;;;;;50.17;27.93;;;;;;;-142.25;100.00;58004.16;5030811;28;20057;-61
2022/12/15 09:28:30;;;;;;;54.17;28.43;;;;;;;-142.25;100.00;58004.16;5028512;28;20049;-61
2022/12/15 09:31:11;;;;;;;54.47;28.47;;;;;;;-142.25;100.00;58004.16;5035169;28;20057;-60
2022/12/15 09:33:38;;;;;;;53.60;28.37;;;;;;;-142.25;100.00;58004.16;5029264;28;20044;-61
2022/12/15 09:36:05;;;;;;;49.30;26.97;;;;;;;-142.25;100.00;58004.16;5032315;28;20041;-60
2022/12/15 09:38:35;;;;;;;56.73;29.00;;;;;;;-142.25;100.00;58004.16;5031078;28;20045;-61
2022/12/15 09:41:13;;;;;;;50.93;27.97;;;;;;;-142.25;100.00;58004.16;5031798;28;20052;-61
2022/12/15 09:43:55;;;;;;;48.30;26.07;;;;;;;-142.25;100.00;58004.16;5032476;28;20029;-61
2022/12/15 09:46:50;;;;;;;52.20;28.20;;;;;;;-142.25;100.00;58004.16;5031318;28;20124;-61
2022/12/15 09:49:21;;;;;;;47.77;26.70;;;;;;;-142.25;100.00;58004.16;5031583;28;20045;-61
2022/12/15 09:51:54;;;;;;;46.10;27.70;;;;;;;-142.25;100.00;58004.16;5030351;28;20548;-63
2022/12/15 09:54:22;;;;;;;47.77;26.67;;;;;;;-142.25;100.00;58004.16;5030764;28;20456;-61
2022/12/15 09:56:56;;;;;;;54.27;28.10;;;;;;;-142.25;100.00;58004.16;5032515;28;20087;-61
2022/12/15 09:59:34;;;;;;;57.88;28.92;;;;;;;-142.25;100.00;58004.16;5029672;28;20029;-62
2022/12/15 10:02:05;;;;;;;55.17;27.83;;;;;;;-142.25;100.00;58004.16;5032480;28;20103;-62
2022/12/15 10:05:06;;;;;;;53.77;28.20;;;;;;;-142.25;100.00;58004.16;5030017;28;20494;-62
2022/12/15 10:07:43;;;;;;;60.07;31.33;;;;;;;-142.25;100.00;58004.16;5029003;28;20102;-61
2022/12/15 10:10:21;;;;;;;49.67;28.37;;;;;;;-142.25;100.00;58004.16;5015574;28;20041;-62
2022/12/15 10:12:51;;;;;;;54.57;28.80;;;;;;;-142.25;100.00;58004.16;5032526;28;20033;-60
2022/12/15 10:15:24;;;;;;;55.37;28.73;;;;;;;-142.25;100.00;58004.16;5030510;28;20760;-60
2022/12/15 10:18:12;;;;;;;54.57;29.93;;;;;;;-142.25;100.00;58004.16;5030131;28;20544;-61
2022/12/15 10:20:38;;;;;;;55.77;29.20;;;;;;;-142.25;100.00;58004.16;5029003;28;20404;-61
2022/12/15 10:23:15;;;;;;;51.90;28.37;;;;;;;-142.25;100.00;58004.16;5029137;28;20042;-60
2022/12/15 10:26:14;;;;;;;58.93;30.37;;;;;;;-142.25;100.00;58004.16;5033821;28;20053;-61
2022/12/15 10:29:04;;;;;;;50.63;27.47;;;;;;;-142.25;100.00;58004.16;5032093;28;20409;-62
2022/12/15 10:31:42;;;;;;;54.53;28.70;;;;;;;-142.25;100.00;58004.16;5031660;28;20171;-61
2022/12/15 10:34:15;;;;;;;54.87;29.37;;;;;;;-142.25;100.00;58004.16;5031058;28;20484;-61
2022/12/15 10:36:49;;;;;;;54.10;29.97;;;;;;;-142.25;100.00;58004.16;5031780;28;20059;-60
2022/12/15 10:39:14;;;;;;;55.33;30.50;;;;;;;-142.25;100.00;58004.16;5029190;28;20245;-61
2022/12/15 10:41:40;;;;;;;55.60;28.87;;;;;;;-142.25;100.00;58004.16;5029429;28;20068;-61
2022/12/15 10:44:25;;;;;;;58.53;31.07;;;;;;;-142.25;100.00;58004.16;5028854;28;20040;-61
2022/12/15 10:46:55;;;;;;;57.25;29.33;;;;;;;-142.25;100.00;58004.16;5034687;28;20061;-61
2022/12/15 10:49:23;;;;;;;56.23;31.40;;;;;;;-142.25;100.00;58004.16;5033952;28;20045;-59
2022/12/15 10:51:59;;;;;;;56.43;29.17;;;;;;;-142.25;100.00;58004.16;5035189;28;20044;-60
2022/12/15 10:54:42;;;;;;;63.80;32.33;;;;;;;-142.25;100.00;58004.16;5033851;28;20033;-59
2022/12/15 10:57:29;;;;;;;53.73;29.30;;;;;;;-142.25;100.00;58004.16;5033853;28;20052;-60
2022/12/15 11:00:23;;;;;;;65.37;32.10;;;;;;;-142.25;100.00;58004.16;5034627;28;20045;-60
2022/12/15 11:02:49;;;;;;;58.13;31.47;;;;;;;-142.25;100.00;58004.16;5031497;28;20099;-60
2022/12/15 11:05:16;;;;;;;59.03;31.00;;;;;;;-142.25;100.00;58004.16;5032667;28;20057;-59
2022/12/15 11:07:43;;;;;;;65.03;32.53;;;;;;;-142.25;100.00;58004.16;5042676;28;20057;-59
2022/12/15 11:12:50;;;;;;;58.90;30.00;;;;;;;-142.25;100.00;58004.16;5033825;28;20037;-60
2022/12/15 11:13:16;;;;;;;56.23;29.93;;;;;;;-142.25;100.00;58004.16;5034466;28;20499;-59
2022/12/15 11:15:46;;;;;;;57.50;29.20;;;;;;;-142.25;100.00;58004.16;5026463;28;20116;-61
2022/12/15 11:18:26;;;;;;;57.70;31.47;;;;;;;-142.25;100.00;58004.16;5037235;28;20444;-61
2022/12/15 11:21:03;;;;;;;65.20;32.77;;;;;;;-142.25;100.00;58004.16;5033217;28;20041;-60
2022/12/15 11:23:40;;;;;;;62.43;31.60;;;;;;;-142.25;100.00;58004.16;5042616;28;20048;-61
2022/12/15 11:26:21;;;;;;;57.20;31.20;;;;;;;-142.25;100.00;58004.16;5034469;28;20453;-62
2022/12/15 11:28:51;;;;;;;59.97;29.43;;;;;;;-142.25;100.00;58004.16;5034502;28;20111;-61
2022/12/15 11:31:27;;;;;;;60.13;31.23;;;;;;;-142.25;100.00;58004.16;5035931;28;20037;-62
2022/12/15 11:33:53;;;;;;;58.15;30.63;;;;;;;-142.25;100.00;58004.16;5037355;28;20423;-60
2022/12/15 11:36:37;;;;;;;53.83;30.70;;;;;;;-142.25;100.00;58004.16;5035397;28;20060;-60
2022/12/15 11:39:12;;;;;;;54.67;29.93;;;;;;;-142.25;100.00;58004.16;5027744;28;20350;-60
2022/12/15 11:42:04;;;;;;;57.27;29.63;;;;;;;-142.25;100.00;58004.16;5031325;28;20037;-63
2022/12/15 11:44:49;;;;;;;62.17;31.33;;;;;;;-142.25;100.00;58004.16;5036163;28;20108;-61
2022/12/15 11:47:19;;;;;;;52.42;27.92;;;;;;;-142.25;100.00;58004.16;5036284;28;20058;-61
2022/12/15 11:49:51;;;;;;;54.10;27.43;;;;;;;-142.25;100.00;58004.16;5032556;28;20555;-61
2022/12/15 11:52:26;;;;;;;59.83;31.33;;;;;;;-142.25;100.00;58004.16;5032496;28;20048;-61
2022/12/15 11:55:10;;;;;;;52.58;27.35;;;;;;;-142.25;100.00;58004.16;5034315;28;20045;-60
2022/12/15 11:57:53;;;;;;;49.80;28.17;;;;;;;-142.25;100.00;58004.16;5032112;28;20049;-60
2022/12/15 12:00:21;;;;;;;48.23;27.67;;;;;;;-142.25;100.00;58004.16;5032728;28;20595;-61
2022/12/15 12:02:58;;;;;;;54.30;27.77;;;;;;;-142.25;100.00;58004.16;5027198;28;20056;-60
2022/12/15 12:05:36;;;;;;;55.43;28.87;;;;;;;-142.25;100.00;58004.16;5025081;28;20601;-61
2022/12/15 12:08:11;;;;;;;55.33;29.57;;;;;;;-142.25;100.00;58004.16;5024963;28;20511;-60
2022/12/15 12:10:58;;;;;;;53.42;29.17;;;;;;;-142.25;100.00;58004.16;5029092;28;20033;-61
2022/12/15 12:14:04;;;;;;;51.73;26.93;;;;;;;-142.25;100.00;58004.16;5033421;28;20568;-61
2022/12/15 12:16:43;;;;;;;55.85;29.80;;;;;;;-142.25;100.00;58004.16;5032720;28;20033;-63
2022/12/15 12:19:18;;;;;;;50.27;27.67;;;;;;;-142.25;100.00;58004.16;5025446;28;20381;-61
2022/12/15 12:21:48;;;;;;;54.67;30.03;;;;;;;-142.25;100.00;58004.16;5029592;28;20103;-63
2022/12/15 12:24:26;;;;;;;58.50;30.13;;;;;;;-142.25;100.00;58004.16;5028239;28;20095;-63
2022/12/15 12:27:04;;;;;;;57.63;29.77;;;;;;;-142.25;100.00;58004.16;5031821;28;20036;-60
2022/12/15 12:29:52;;;;;;;55.30;31.20;;;;;;;-142.25;100.00;58004.16;5031423;28;20361;-61
2022/12/15 12:32:36;;;;;;;63.23;31.33;;;;;;;-142.25;100.00;58004.16;5032764;28;20045;-61
2022/12/15 12:35:19;;;;;;;58.73;29.93;;;;;;;-142.25;100.00;58004.16;5032481;28;20039;-59
2022/12/15 12:38:01;;;;;;;61.13;31.47;;;;;;;-142.25;100.00;58004.16;5028699;28;20287;-62
2022/12/15 12:40:50;;;;;;;56.47;30.80;;;;;;;-142.25;100.00;58004.16;5031121;28;20041;-61
2022/12/15 12:43:30;;;;;;;60.70;31.50;;;;;;;-142.25;100.00;58004.16;5031756;28;20132;-63
2022/12/15 12:46:16;;;;;;;61.53;31.50;;;;;;;-142.25;100.00;58004.16;5031346;28;20411;-62
2022/12/15 12:48:49;;;;;;;61.73;30.40;;;;;;;-142.25;100.00;58004.16;5026033;28;20076;-59
2022/12/15 12:51:26;;;;;;;62.10;32.27;;;;;;;-142.25;100.00;58004.16;5027697;28;20044;-61
2022/12/15 12:53:55;;;;;;;64.63;32.80;;;;;;;-142.25;100.00;58004.16;5031599;28;20037;-60
2022/12/15 12:56:40;;;;;;;61.83;32.70;;;;;;;-142.25;100.00;58004.16;5028425;28;20044;-61
2022/12/15 12:59:27;;;;;;;63.97;31.20;;;;;;;-142.25;100.00;58004.16;5025613;28;20815;-61
2022/12/15 13:01:55;;;;;;;65.17;32.43;;;;;;;-142.25;100.00;58004.16;5030999;28;20116;-60
2022/12/15 13:04:27;;;;;;;59.20;28.77;;;;;;;-142.25;100.00;58004.16;5040342;28;20055;-62
2022/12/15 13:07:03;;;;;;;62.57;32.93;;;;;;;-142.25;100.00;58004.16;5032162;28;21013;-62
2022/12/15 13:09:40;;;;;;;64.10;32.97;;;;;;;-142.25;100.00;58004.16;5030049;28;20072;-62
2022/12/15 13:12:32;;;;;;;61.43;32.37;;;;;;;-142.25;100.00;58004.16;5025201;28;20073;-62
2022/12/15 13:14:58;;;;;;;65.53;33.07;;;;;;;-142.25;100.00;58004.16;5022996;28;20128;-62
2022/12/15 13:17:31;;;;;;;69.67;35.97;;;;;;;-142.25;100.00;58004.16;5027485;28;20604;-63
2022/12/15 13:20:00;;;;;;;59.50;31.27;;;;;;;-142.25;100.00;58004.16;5032436;28;20041;-63
2022/12/15 13:22:39;;;;;;;60.40;30.53;;;;;;;-142.25;100.00;58004.16;5030388;28;20951;-63
2022/12/15 13:25:34;;;;;;;66.53;34.60;;;;;;;-142.25;100.00;58004.16;5031296;28;20037;-62
2022/12/15 13:28:14;;;;;;;67.88;34.13;;;;;;;-142.25;100.00;58004.16;5026441;28;20052;-65
2022/12/15 13:31:20;;;;;;;66.93;33.53;;;;;;;-142.25;100.00;58004.16;5027643;28;20166;-63
2022/12/15 13:33:54;;;;;;;69.28;33.05;;;;;;;-142.25;100.00;58004.16;5032490;28;20488;-64